createdAt,value
2023-04-20T00:02:58.462Z,79.90
2023-04-20T00:08:04.477Z,79.50
2023-04-20T00:13:08.455Z,80.80
2023-04-20T00:18:14.496Z,82.30
2023-04-20T00:23:18.054Z,83.30
2023-04-20T00:28:22.075Z,83.90
2023-04-20T00:33:26.940Z,84.90
2023-04-20T00:38:30.511Z,85.80
2023-04-20T00:43:36.686Z,86.30
2023-04-20T00:48:42.296Z,87.10
2023-04-20T00:53:46.816Z,87.10
2023-04-20T00:58:52.282Z,87.10
2023-04-20T01:03:57.583Z,87.40
2023-04-20T01:09:01.957Z,87.10
2023-04-20T01:14:06.819Z,86.10
2023-04-20T01:19:11.887Z,87.00
2023-04-20T01:24:17.394Z,88.10
2023-04-20T01:29:22.667Z,88.20
2023-04-20T01:34:26.301Z,88.40
2023-04-20T01:39:31.879Z,88.90
2023-04-20T01:44:35.659Z,89.50
2023-04-20T01:49:39.631Z,90.00
2023-04-20T01:54:44.524Z,90.40
2023-04-20T01:59:49.226Z,91.30
2023-04-20T02:04:53.936Z,91.60
2023-04-20T02:09:59.173Z,91.60
2023-04-20T02:15:04.314Z,90.30
2023-04-20T02:20:09.507Z,90.90
2023-04-20T02:25:15.358Z,91.00
2023-04-20T02:30:20.219Z,92.00
2023-04-20T02:35:23.972Z,93.40
2023-04-20T02:40:33.853Z,93.70
2023-04-20T02:45:41.573Z,93.80
2023-04-20T02:50:47.405Z,93.90
2023-04-20T02:55:56.758Z,94.30
2023-04-20T03:01:10.300Z,94.40
2023-04-20T03:06:15.679Z,95.00
2023-04-20T03:11:25.561Z,96.40
2023-04-20T03:16:29.452Z,96.00
2023-04-20T03:21:33.445Z,96.60
2023-04-20T03:26:38.857Z,97.70
2023-04-20T03:31:56.360Z,99.90
2023-04-20T03:37:00.189Z,99.90
2023-04-20T03:42:04.917Z,99.90
2023-04-20T03:47:10.181Z,99.90
2023-04-20T03:52:14.413Z,99.90
2023-04-20T03:57:20.286Z,98.90
2023-04-20T04:02:25.898Z,99.00
2023-04-20T04:07:31.370Z,99.90
2023-04-20T04:12:36.654Z,99.90
2023-04-20T04:17:47.024Z,99.90
2023-04-20T04:22:52.172Z,99.90
2023-04-20T04:28:12.023Z,99.90
2023-04-20T04:33:29.507Z,99.90
2023-04-20T04:38:34.480Z,99.90
2023-04-20T04:43:39.687Z,99.90
2023-04-20T04:49:01.340Z,99.90
2023-04-20T04:54:05.392Z,99.90
2023-04-20T04:59:10.629Z,99.90
2023-04-20T05:04:15.292Z,99.90
2023-04-20T05:09:18.993Z,99.90
2023-04-20T05:14:27.838Z,99.90
2023-04-20T05:19:34.063Z,99.90
2023-04-20T05:24:37.519Z,99.90
2023-04-20T05:29:43.101Z,99.90
2023-04-20T05:34:46.601Z,99.90
2023-04-20T05:39:50.628Z,99.90
2023-04-20T05:44:55.864Z,99.90
2023-04-20T05:49:59.564Z,99.90
2023-04-20T05:55:03.383Z,99.90
2023-04-20T06:00:10.237Z,99.90
2023-04-20T06:05:16.606Z,99.90
2023-04-20T06:10:22.991Z,99.90
2023-04-20T06:15:27.749Z,99.90
2023-04-20T06:20:31.671Z,99.90
2023-04-20T06:25:37.129Z,99.90
2023-04-20T06:30:42.608Z,99.90
2023-04-20T06:35:50.144Z,99.90
2023-04-20T06:40:57.656Z,99.90
2023-04-20T06:46:02.977Z,99.90
2023-04-20T06:51:06.622Z,99.90
2023-04-20T06:56:11.693Z,99.90
2023-04-20T07:01:17.368Z,99.90
2023-04-20T07:06:21.348Z,99.90
2023-04-20T07:11:25.900Z,99.90
2023-04-20T07:16:35.893Z,99.90
2023-04-20T07:21:39.870Z,99.90
2023-04-20T07:26:43.691Z,99.90
2023-04-20T07:31:49.306Z,99.90
2023-04-20T07:36:52.746Z,99.90
2023-04-20T07:41:57.065Z,99.90
2023-04-20T07:47:02.936Z,99.90
2023-04-20T07:52:16.241Z,99.90
2023-04-20T07:57:22.484Z,99.90
2023-04-20T08:02:28.949Z,99.90
2023-04-20T08:07:39.763Z,99.90
2023-04-20T08:12:43.650Z,99.90
2023-04-20T08:17:53.106Z,99.90
2023-04-20T08:23:00.402Z,99.90
2023-04-20T08:28:08.689Z,99.90
2023-04-20T08:33:16.846Z,99.90
2023-04-20T08:38:32.909Z,99.90
2023-04-20T08:43:39.716Z,99.90
2023-04-20T08:48:44.696Z,99.90
2023-04-20T08:53:48.202Z,99.90
2023-04-20T08:59:18.036Z,99.90
2023-04-20T09:04:25.603Z,99.90
2023-04-20T09:09:30.110Z,99.90
2023-04-20T09:14:45.128Z,99.90
2023-04-20T09:20:05.193Z,99.90
2023-04-20T09:25:16.454Z,99.90
2023-04-20T09:30:22.902Z,99.90
2023-04-20T09:35:28.478Z,99.90
2023-04-20T09:40:32.956Z,99.90
2023-04-20T09:45:37.342Z,99.90
2023-04-20T09:50:49.364Z,99.90
2023-04-20T09:55:56.208Z,99.90
2023-04-20T10:01:00.359Z,99.90
2023-04-20T10:06:06.725Z,99.90
2023-04-20T10:11:11.857Z,99.90
2023-04-20T10:16:19.611Z,99.90
2023-04-20T10:21:26.476Z,99.90
2023-04-20T10:26:39.291Z,99.90
2023-04-20T10:31:42.803Z,99.90
2023-04-20T10:36:48.683Z,99.90
2023-04-20T10:41:54.496Z,99.90
2023-04-20T10:46:58.468Z,99.90
2023-04-20T10:52:03.451Z,99.90
2023-04-20T10:57:08.080Z,99.90
2023-04-20T11:02:14.915Z,99.90
2023-04-20T11:07:21.814Z,99.90
2023-04-20T11:12:29.530Z,99.90
2023-04-20T11:17:34.747Z,99.90
2023-04-20T11:22:40.093Z,99.90
2023-04-20T11:27:43.552Z,99.90
2023-04-20T11:32:57.383Z,99.90
2023-04-20T11:38:02.461Z,99.90
2023-04-20T11:43:07.664Z,99.90
2023-04-20T11:48:11.792Z,99.90
2023-04-20T11:53:17.892Z,99.90
2023-04-20T11:58:22.075Z,99.90
2023-04-20T12:03:25.950Z,99.90
2023-04-20T12:08:31.784Z,99.90
2023-04-20T12:13:40.350Z,99.90
2023-04-20T12:18:46.780Z,99.80
2023-04-20T12:23:52.182Z,99.90
2023-04-20T12:28:55.529Z,98.70
2023-04-20T12:33:59.552Z,99.60
2023-04-20T12:39:05.599Z,97.00
2023-04-20T12:44:14.100Z,98.80
2023-04-20T12:49:19.591Z,99.60
2023-04-20T12:54:28.528Z,99.00
2023-04-20T12:59:34.086Z,97.70
2023-04-20T13:04:38.472Z,95.70
2023-04-20T13:09:45.765Z,98.00
2023-04-20T13:14:51.572Z,93.00
2023-04-20T13:20:04.905Z,93.80
2023-04-20T13:25:12.306Z,94.20
2023-04-20T13:30:23.564Z,90.90
2023-04-20T13:35:28.332Z,91.00
2023-04-20T13:40:46.694Z,89.20
2023-04-20T13:45:51.808Z,88.20
2023-04-20T13:50:57.378Z,86.30
2023-04-20T13:56:02.790Z,91.40
2023-04-20T14:01:10.132Z,91.50
2023-04-20T14:06:16.046Z,86.40
2023-04-20T14:11:22.730Z,86.20
2023-04-20T14:16:27.048Z,91.60
2023-04-20T14:21:36.487Z,88.60
2023-04-20T14:26:43.388Z,85.90
2023-04-20T14:31:51.616Z,87.80
2023-04-20T14:36:56.183Z,90.10
2023-04-20T14:42:01.219Z,87.00
2023-04-20T14:47:05.873Z,88.50
2023-04-20T14:52:09.704Z,90.60
2023-04-20T14:57:15.014Z,91.30
2023-04-20T15:02:19.007Z,97.10
2023-04-20T15:07:22.752Z,99.90
2023-04-20T15:12:27.788Z,99.90
2023-04-20T15:17:32.541Z,99.90
2023-04-20T15:22:36.352Z,99.90
2023-04-20T15:27:42.007Z,99.90
2023-04-20T15:32:48.666Z,99.90
2023-04-20T15:37:52.848Z,99.90
2023-04-20T15:42:58.834Z,99.90
2023-04-20T15:48:02.309Z,99.90
2023-04-20T15:53:06.085Z,99.90
2023-04-20T15:58:11.981Z,99.90
2023-04-20T16:03:16.584Z,99.90
2023-04-20T16:08:21.098Z,99.90
2023-04-20T16:13:26.855Z,99.90
2023-04-20T16:18:32.278Z,99.90
2023-04-20T16:23:37.167Z,99.90
2023-04-20T16:28:42.777Z,99.90
2023-04-20T16:33:46.123Z,99.90
2023-04-20T16:38:49.616Z,99.90
2023-04-20T16:43:54.284Z,99.90
2023-04-20T16:48:57.482Z,99.90
2023-04-20T16:54:01.711Z,99.90
2023-04-20T16:59:08.704Z,99.90
2023-04-20T17:04:12.304Z,99.90
2023-04-20T17:09:15.458Z,99.90
2023-04-20T17:14:20.609Z,99.90
2023-04-20T17:19:25.073Z,99.90
2023-04-20T17:24:30.293Z,99.90
2023-04-20T17:29:38.546Z,99.90
2023-04-20T17:34:49.447Z,99.90
2023-04-20T17:39:53.081Z,99.90
2023-04-20T17:44:59.899Z,99.90
2023-04-20T17:50:04.727Z,99.90
2023-04-20T17:55:09.247Z,99.90
2023-04-20T18:00:16.259Z,99.90
2023-04-20T18:05:19.351Z,99.90
2023-04-20T18:10:23.021Z,99.90
2023-04-20T18:15:29.003Z,99.90
2023-04-20T18:20:32.693Z,99.90
2023-04-20T18:25:36.725Z,99.90
2023-04-20T18:30:44.112Z,99.90
2023-04-20T18:35:48.045Z,99.90
2023-04-20T18:41:00.056Z,99.90
2023-04-20T18:46:04.844Z,99.90
2023-04-20T18:51:08.456Z,99.90
2023-04-20T18:56:11.806Z,99.90
2023-04-20T19:01:16.358Z,99.90
2023-04-20T19:06:20.175Z,99.90
2023-04-20T19:11:23.985Z,99.90
2023-04-20T19:16:30.614Z,99.90
2023-04-20T19:21:34.341Z,99.90
2023-04-20T19:26:38.160Z,99.90
2023-04-20T19:31:43.414Z,99.90
2023-04-20T19:36:51.248Z,99.90
2023-04-20T19:41:54.489Z,99.90
2023-04-20T19:46:59.544Z,99.90
2023-04-20T19:52:06.864Z,99.90
2023-04-20T19:57:10.282Z,99.90
2023-04-20T20:02:15.702Z,99.90
2023-04-20T20:07:20.560Z,99.90
2023-04-20T20:12:24.537Z,99.90
2023-04-20T20:17:31.735Z,99.90
2023-04-20T20:22:35.655Z,99.90
2023-04-20T20:27:39.261Z,99.90
2023-04-20T20:32:44.228Z,99.90
2023-04-20T20:37:48.207Z,99.90
2023-04-20T20:42:52.203Z,99.90
2023-04-20T20:47:57.299Z,99.90
2023-04-20T20:53:01.236Z,99.90
2023-04-20T20:58:04.920Z,99.90
2023-04-20T21:03:10.631Z,99.90
2023-04-20T21:08:14.250Z,99.90
2023-04-20T21:13:19.109Z,99.90
2023-04-20T21:18:23.932Z,99.90
2023-04-20T21:23:28.605Z,99.90
2023-04-20T21:28:32.815Z,99.90
2023-04-20T21:33:38.613Z,99.90
2023-04-20T21:38:41.784Z,99.90
2023-04-20T21:43:45.795Z,99.90
2023-04-20T21:48:52.153Z,99.90
2023-04-20T21:53:59.047Z,99.90
2023-04-20T21:59:02.409Z,99.90
2023-04-20T22:04:09.623Z,99.90
2023-04-20T22:09:13.659Z,99.90
2023-04-20T22:14:17.093Z,99.90
2023-04-20T22:19:22.471Z,99.90
2023-04-20T22:24:26.406Z,99.90
2023-04-20T22:29:30.213Z,99.90
2023-04-20T22:34:36.225Z,99.90
2023-04-20T22:39:39.759Z,99.90
2023-04-20T22:44:44.790Z,99.90
2023-04-20T22:49:50.961Z,99.90
2023-04-20T22:54:55.768Z,99.90
2023-04-20T22:59:59.292Z,99.90
2023-04-20T23:05:05.188Z,99.90
2023-04-20T23:10:10.926Z,99.90
2023-04-20T23:15:14.612Z,99.90
2023-04-20T23:20:20.074Z,99.90
2023-04-20T23:25:23.567Z,99.90
2023-04-20T23:30:26.665Z,99.90
2023-04-20T23:35:33.135Z,99.90
2023-04-20T23:40:36.682Z,99.90
2023-04-20T23:45:40.938Z,99.90
2023-04-20T23:50:46.391Z,99.90
2023-04-20T23:55:52.205Z,99.90
